Time;durP1;ratioP1;P1;durP2;ratioP2;P2;SDS_P1;SDS_P2;PMS_P1;PMS_P2;Temp;Humidity;BMP_temperature;BMP_pressure;BME280_temperature;BME280_humidity;BME280_pressure;Samples;Min_cycle;Max_cycle;Signal;HPM_P1;HPM_P2
2022/12/21 00:01:11;;;;;;;121.07;28.08;;;;;;;8.08;100.00;100931.31;5076222;28;20024;-88
2022/12/21 00:03:37;;;;;;;111.20;27.85;;;;;;;8.08;100.00;100918.63;5075407;28;20025;-87
2022/12/21 00:06:04;;;;;;;112.70;28.80;;;;;;;8.06;100.00;100918.00;5058662;28;20020;-87
2022/12/21 00:08:37;;;;;;;108.68;27.88;;;;;;;8.04;100.00;100920.03;5057429;28;20344;-87
2022/12/21 00:11:05;;;;;;;106.25;26.92;;;;;;;8.04;100.00;100913.81;5058039;28;20518;-87
2022/12/21 00:13:31;;;;;;;132.30;28.52;;;;;;;8.02;100.00;100919.41;5075274;28;20107;-87
2022/12/21 00:16:03;;;;;;;112.72;28.33;;;;;;;8.04;100.00;100913.81;5057344;28;20404;-88
2022/12/21 00:18:33;;;;;;;110.15;28.27;;;;;;;8.03;100.00;100921.09;5057027;28;20059;-87
2022/12/21 00:21:02;;;;;;;119.55;28.92;;;;;;;8.02;100.00;100924.81;5058397;28;20052;-87
2022/12/21 00:23:28;;;;;;;108.40;27.67;;;;;;;8.03;100.00;100917.53;5075428;28;20035;-87
2022/12/21 00:25:54;;;;;;;106.57;28.55;;;;;;;7.99;100.00;100919.81;5057428;28;20154;-87
2022/12/21 00:28:23;;;;;;;107.05;28.30;;;;;;;7.99;100.00;100927.09;5057054;28;20028;-87
2022/12/21 00:30:51;;;;;;;125.30;29.50;;;;;;;7.97;100.00;100921.88;5056721;28;20381;-87
2022/12/21 00:33:18;;;;;;;113.13;27.83;;;;;;;7.97;100.00;100921.03;5057286;28;20083;-87
2022/12/21 00:35:51;;;;;;;114.00;29.25;;;;;;;7.95;100.00;100920.41;5023939;28;20033;-87
2022/12/21 00:38:18;;;;;;;124.05;30.50;;;;;;;7.96;100.00;100922.03;5058037;28;20111;-87
2022/12/21 00:40:44;;;;;;;126.75;29.63;;;;;;;7.95;100.00;100923.09;5057148;28;20032;-87
2022/12/21 00:43:10;;;;;;;136.90;30.55;;;;;;;7.95;100.00;100913.13;5057352;28;20464;-87
2022/12/21 00:45:43;;;;;;;133.63;30.95;;;;;;;7.96;100.00;100924.75;5056786;28;20082;-88
2022/12/21 00:48:08;;;;;;;135.05;31.48;;;;;;;7.96;100.00;100922.91;5057216;28;20048;-87
2022/12/21 00:50:36;;;;;;;133.47;30.60;;;;;;;7.96;100.00;100919.34;5056549;28;20485;-87
2022/12/21 00:53:01;;;;;;;136.27;31.67;;;;;;;7.95;100.00;100926.63;5056680;28;20040;-88
2022/12/21 00:55:29;;;;;;;143.77;32.63;;;;;;;7.94;100.00;100919.53;5056913;28;20024;-88
2022/12/21 00:57:57;;;;;;;144.25;31.55;;;;;;;7.95;100.00;100928.50;5024294;28;20044;-87
2022/12/21 01:00:23;;;;;;;140.25;32.10;;;;;;;7.94;100.00;100930.34;5040149;28;20029;-87
2022/12/21 01:02:51;;;;;;;137.63;31.10;;;;;;;7.94;100.00;100934.94;5056258;28;20086;-88
2022/12/21 01:05:16;;;;;;;160.05;33.10;;;;;;;7.93;100.00;100934.09;5056578;28;20059;-88
2022/12/21 01:07:44;;;;;;;140.77;32.65;;;;;;;7.92;100.00;100937.81;5056503;28;20118;-87
2022/12/21 01:10:10;;;;;;;155.90;32.45;;;;;;;7.91;100.00;100933.44;5040127;28;20036;-87
2022/12/21 01:12:36;;;;;;;164.93;33.58;;;;;;;7.90;100.00;100935.31;5039899;28;20029;-87
2022/12/21 01:15:04;;;;;;;149.13;34.20;;;;;;;7.89;100.00;100940.94;5057141;28;20058;-87
2022/12/21 01:17:32;;;;;;;137.47;31.43;;;;;;;7.89;100.00;100940.94;5056174;28;20205;-88
2022/12/21 01:19:58;;;;;;;172.43;32.95;;;;;;;7.95;100.00;100950.13;5056239;28;20032;-88
2022/12/21 01:22:23;;;;;;;141.87;32.90;;;;;;;7.92;100.00;100950.50;5056516;28;20044;-87
2022/12/21 01:24:52;;;;;;;160.15;33.03;;;;;;;7.93;100.00;100944.91;5057191;28;20036;-87
2022/12/21 01:27:19;;;;;;;155.67;33.37;;;;;;;7.92;100.00;100937.81;5039441;28;20133;-87
2022/12/21 01:29:45;;;;;;;164.45;33.38;;;;;;;7.96;100.00;100936.41;5074127;28;20032;-87
2022/12/21 01:32:12;;;;;;;167.48;33.95;;;;;;;8.08;100.00;100947.50;5056425;28;20036;-88
2022/12/21 01:34:38;;;;;;;164.80;32.65;;;;;;;8.11;100.00;100941.72;5039459;28;20039;-87
2022/12/21 01:37:03;;;;;;;189.93;34.83;;;;;;;8.08;100.00;100961.84;5056918;28;20045;-87
2022/12/21 01:39:30;;;;;;;157.15;34.55;;;;;;;8.02;100.00;100967.22;5056871;28;20090;-87
2022/12/21 01:41:55;;;;;;;157.15;32.95;;;;;;;7.97;100.00;100970.50;5056076;28;20029;-87
2022/12/21 01:45:02;;;;;;;143.75;33.03;;;;;;;8.00;100.00;100977.38;5055925;28;20035;-87
2022/12/21 01:47:41;;;;;;;142.02;33.17;;;;;;;7.98;100.00;100966.75;5056252;28;20499;-87
2022/12/21 01:50:18;;;;;;;189.03;33.00;;;;;;;7.97;100.00;100966.97;5056272;28;20361;-87
2022/12/21 01:52:48;;;;;;;146.70;31.95;;;;;;;7.94;100.00;100965.47;5055489;28;20119;-87
2022/12/21 01:55:13;;;;;;;151.05;34.15;;;;;;;7.93;100.00;100957.56;5023275;28;20067;-87
2022/12/21 01:57:39;;;;;;;151.77;33.10;;;;;;;7.93;100.00;100958.41;5056167;28;20056;-87
2022/12/21 02:00:05;;;;;;;153.15;33.33;;;;;;;7.90;100.00;100950.72;5056415;28;20032;-86
2022/12/21 02:02:36;;;;;;;163.73;33.50;;;;;;;7.91;100.00;100955.06;5055587;28;20021;-87
2022/12/21 02:05:33;;;;;;;158.93;33.97;;;;;;;7.86;100.00;100947.53;5054882;28;20397;-87
2022/12/21 02:08:01;;;;;;;181.13;32.67;;;;;;;7.82;100.00;100950.84;5056224;28;20028;-87
2022/12/21 02:10:29;;;;;;;203.93;34.95;;;;;;;7.83;100.00;100950.63;5055631;28;20032;-86
2022/12/21 02:13:01;;;;;;;147.00;33.85;;;;;;;7.83;100.00;100947.94;5073456;28;20055;-86
2022/12/21 02:15:39;;;;;;;167.50;33.83;;;;;;;7.81;100.00;100939.19;5055609;28;20115;-87
2022/12/21 02:18:19;;;;;;;208.38;35.08;;;;;;;7.86;100.00;100949.41;5055646;28;20076;-87
2022/12/21 02:20:53;;;;;;;174.38;33.78;;;;;;;7.89;100.00;100943.63;5058447;28;20182;-87
2022/12/21 02:23:41;;;;;;;168.02;34.08;;;;;;;7.89;100.00;100944.44;5061866;28;20037;-87
2022/12/21 02:26:35;;;;;;;162.82;34.70;;;;;;;7.89;100.00;100949.84;5062979;28;20028;-87
2022/12/21 02:29:29;;;;;;;134.30;32.73;;;;;;;7.89;100.00;100947.16;5062412;28;20036;-87
2022/12/21 02:32:33;;;;;;;150.02;33.97;;;;;;;7.92;100.00;100945.09;5061776;28;20077;-87
2022/12/21 02:35:22;;;;;;;170.00;34.95;;;;;;;7.92;100.00;100937.00;5062124;28;20041;-87
2022/12/21 02:38:02;;;;;;;172.55;34.67;;;;;;;7.88;100.00;100945.50;5080069;28;20047;-87
2022/12/21 02:40:46;;;;;;;179.60;33.92;;;;;;;7.83;100.00;100953.34;5062102;28;20134;-87
2022/12/21 02:46:14;;;;;;;159.73;34.42;;;;;;;7.71;100.00;100941.41;5080117;28;20086;-88
2022/12/21 02:48:52;;;;;;;168.55;35.95;;;;;;;7.70;100.00;100945.13;5062489;28;20124;-87
2022/12/21 02:51:33;;;;;;;167.65;35.35;;;;;;;7.65;100.00;100929.50;5080177;28;20036;-87
2022/12/21 02:53:59;;;;;;;205.63;36.95;;;;;;;7.64;100.00;100935.94;5062238;28;20519;-87
2022/12/21 02:56:26;;;;;;;182.00;36.20;;;;;;;7.67;100.00;100934.72;5045173;28;20036;-87
2022/12/21 02:58:52;;;;;;;212.88;39.10;;;;;;;7.66;100.00;100931.19;5062126;28;20052;-87
2022/12/21 03:02:01;;;;;;;189.10;37.60;;;;;;;7.66;100.00;100939.28;5061844;28;20047;-87
2022/12/21 03:04:56;;;;;;;189.98;37.38;;;;;;;7.66;100.00;100943.84;5040204;28;20032;-87
2022/12/21 03:07:38;;;;;;;170.55;37.58;;;;;;;7.63;100.00;100945.06;5079880;28;20016;-87
2022/12/21 03:10:22;;;;;;;171.10;36.65;;;;;;;7.63;100.00;100936.97;5061568;28;20170;-87
2022/12/21 03:13:08;;;;;;;169.13;36.70;;;;;;;7.63;100.00;100928.03;5079960;28;20032;-87
2022/12/21 03:15:44;;;;;;;190.07;38.63;;;;;;;7.62;100.00;100920.94;5080591;28;20032;-87
2022/12/21 03:18:31;;;;;;;188.70;37.90;;;;;;;7.62;100.00;100932.59;5061592;28;20060;-87
2022/12/21 03:21:10;;;;;;;189.52;37.97;;;;;;;7.62;100.00;100929.91;5061636;28;20032;-87
2022/12/21 03:23:51;;;;;;;199.45;39.67;;;;;;;7.63;100.00;100922.63;5061938;28;20444;-86
2022/12/21 03:26:38;;;;;;;185.97;37.40;;;;;;;7.64;100.00;100929.69;5079680;28;20040;-87
2022/12/21 03:29:07;;;;;;;199.82;39.78;;;;;;;7.62;100.00;100913.69;5061945;28;20373;-88
2022/12/21 03:31:38;;;;;;;192.60;39.53;;;;;;;7.59;100.00;100915.94;5061532;28;20032;-87
2022/12/21 03:34:20;;;;;;;209.05;37.88;;;;;;;7.59;100.00;100913.22;5058455;28;20025;-87
2022/12/21 03:36:59;;;;;;;173.88;37.33;;;;;;;7.60;100.00;100923.84;5059507;28;20360;-87
2022/12/21 03:39:28;;;;;;;174.50;38.27;;;;;;;7.60;100.00;100928.41;5058360;28;20052;-87
2022/12/21 03:42:00;;;;;;;187.75;39.17;;;;;;;7.59;100.00;100924.03;5058594;28;20033;-87
2022/12/21 03:44:32;;;;;;;169.55;37.55;;;;;;;7.59;100.00;100927.59;5076210;28;20032;-87
2022/12/21 03:47:02;;;;;;;201.55;39.70;;;;;;;7.54;100.00;100916.50;5058179;28;20029;-87
2022/12/21 03:49:33;;;;;;;185.52;38.70;;;;;;;7.59;100.00;100919.47;5075877;28;20028;-86
2022/12/21 03:52:10;;;;;;;186.37;37.70;;;;;;;7.59;100.00;100924.03;5076127;28;20024;-87
2022/12/21 03:54:44;;;;;;;167.18;36.70;;;;;;;7.58;100.00;100915.09;5075816;28;20480;-87
2022/12/21 03:57:11;;;;;;;174.30;36.72;;;;;;;7.55;100.00;100913.63;5057769;28;20036;-87
2022/12/21 03:59:49;;;;;;;149.82;35.42;;;;;;;7.54;100.00;100921.91;5058592;28;20115;-86
2022/12/21 04:02:25;;;;;;;134.75;34.03;;;;;;;7.51;100.00;100922.31;5057876;28;20036;-86
2022/12/21 04:05:18;;;;;;;160.07;35.23;;;;;;;7.51;100.00;100923.16;5075630;28;20123;-87
2022/12/21 04:07:49;;;;;;;129.13;32.08;;;;;;;7.44;100.00;100908.75;5058313;28;20081;-86
2022/12/21 04:10:18;;;;;;;123.07;32.30;;;;;;;7.40;100.00;100912.88;5057740;28;20116;-86
2022/12/21 04:12:47;;;;;;;123.57;31.60;;;;;;;7.38;100.00;100913.06;5058330;28;20453;-88
2022/12/21 04:15:16;;;;;;;112.93;30.65;;;;;;;7.38;100.00;100906.81;5075859;28;20040;-86
2022/12/21 04:17:44;;;;;;;108.87;29.20;;;;;;;7.32;100.00;100908.44;5057318;28;20052;-87
2022/12/21 04:20:22;;;;;;;106.38;30.00;;;;;;;7.27;100.00;100908.16;5075247;28;20029;-87
2022/12/21 04:28:28;;;;;;;101.57;28.73;;;;;;;7.23;100.00;100916.84;5076060;28;20043;-87
2022/12/21 04:30:54;;;;;;;96.23;26.70;;;;;;;7.19;100.00;100914.53;5075111;28;20465;-87
2022/12/21 04:33:23;;;;;;;99.15;27.67;;;;;;;7.15;100.00;100915.09;5057267;28;20025;-86
2022/12/21 04:38:43;;;;;;;92.03;26.98;;;;;;;7.06;100.00;100905.44;5075835;28;20038;-86
2022/12/21 04:41:09;;;;;;;79.85;25.90;;;;;;;7.03;100.00;100906.66;5040170;28;20032;-87
2022/12/21 04:43:36;;;;;;;94.47;26.93;;;;;;;7.00;100.00;100898.97;5056644;28;20424;-87
2022/12/21 04:46:04;;;;;;;93.55;25.40;;;;;;;6.97;100.00;100892.06;5057775;28;20059;-87
2022/12/21 04:48:32;;;;;;;95.03;26.13;;;;;;;6.96;100.00;100897.66;5056637;28;20423;-87
2022/12/21 04:51:06;;;;;;;84.07;24.83;;;;;;;6.92;100.00;100897.19;5056889;28;20386;-87
2022/12/21 04:53:31;;;;;;;86.18;26.17;;;;;;;6.94;100.00;100905.09;5056439;28;20017;-87
2022/12/21 04:55:59;;;;;;;83.87;25.53;;;;;;;6.94;100.00;100897.00;5074532;28;20028;-87
2022/12/21 04:58:25;;;;;;;100.50;27.33;;;;;;;6.97;100.00;100894.78;5074531;28;20385;-86
2022/12/21 05:00:50;;;;;;;87.77;26.13;;;;;;;6.96;100.00;100903.88;5056734;28;20025;-87
2022/12/21 05:03:18;;;;;;;89.97;24.93;;;;;;;6.95;100.00;100888.75;5074251;28;20033;-87
2022/12/21 05:05:44;;;;;;;87.50;24.25;;;;;;;6.95;100.00;100893.28;5056859;28;20036;-86
2022/12/21 05:08:09;;;;;;;100.53;25.43;;;;;;;6.93;100.00;100901.56;5056382;28;20401;-87
2022/12/21 05:10:35;;;;;;;82.68;24.58;;;;;;;6.93;100.00;100908.84;5039824;28;20027;-87
2022/12/21 05:13:00;;;;;;;91.57;24.50;;;;;;;6.89;100.00;100896.75;5056027;28;20023;-87
2022/12/21 05:15:49;;;;;;;89.13;25.63;;;;;;;6.90;100.00;100903.81;5039908;28;20119;-87
2022/12/21 05:18:14;;;;;;;86.47;24.77;;;;;;;6.85;100.00;100902.53;5055889;28;20048;-86
2022/12/21 05:20:39;;;;;;;82.47;23.37;;;;;;;6.83;100.00;100895.63;5039810;28;20063;-87
2022/12/21 05:23:09;;;;;;;79.47;22.57;;;;;;;6.83;100.00;100898.34;5056344;28;20031;-87
2022/12/21 05:25:35;;;;;;;83.05;24.42;;;;;;;6.78;100.00;100898.09;5074814;28;20098;-87
2022/12/21 05:28:00;;;;;;;77.20;22.63;;;;;;;6.80;100.00;100893.31;5056304;28;20033;-87
2022/12/21 05:30:26;;;;;;;81.35;22.20;;;;;;;6.77;100.00;100882.91;5056157;28;20460;-87
2022/12/21 05:32:51;;;;;;;67.03;19.75;;;;;;;6.74;100.00;100888.69;5056066;28;20025;-87
2022/12/21 05:35:17;;;;;;;84.67;21.87;;;;;;;6.75;100.00;100895.78;5056080;28;20040;-87
2022/12/21 05:37:42;;;;;;;78.93;21.13;;;;;;;6.75;100.00;100893.91;5056372;28;20058;-86
2022/12/21 05:40:08;;;;;;;74.50;21.23;;;;;;;6.75;100.00;100902.00;5056290;28;20039;-86
2022/12/21 05:42:36;;;;;;;75.55;19.90;;;;;;;6.74;100.00;100891.41;5038792;28;20360;-87
2022/12/21 05:45:01;;;;;;;69.15;21.08;;;;;;;6.74;100.00;100896.78;5056043;28;20069;-87
2022/12/21 05:47:27;;;;;;;74.30;20.63;;;;;;;6.71;100.00;100898.00;5073490;28;20468;-86
2022/12/21 05:49:53;;;;;;;71.47;20.40;;;;;;;6.67;100.00;100894.84;5055807;28;20082;-87
2022/12/21 05:52:19;;;;;;;71.85;20.58;;;;;;;6.65;100.00;100896.06;5055949;28;20024;-86
2022/12/21 05:54:44;;;;;;;66.68;19.40;;;;;;;6.62;100.00;100883.78;5072864;28;20041;-87
2022/12/21 05:57:10;;;;;;;68.50;20.20;;;;;;;6.58;100.00;100879.78;5055611;28;20534;-87
2022/12/21 05:59:38;;;;;;;64.85;18.92;;;;;;;6.59;100.00;100886.84;5055675;28;20024;-87
2022/12/21 06:02:04;;;;;;;65.00;18.17;;;;;;;6.57;100.00;100888.06;5055395;28;20135;-87
2022/12/21 06:04:30;;;;;;;61.45;17.15;;;;;;;6.53;100.00;100886.78;5056577;28;20025;-87
2022/12/21 06:06:55;;;;;;;57.77;16.97;;;;;;;6.51;100.00;100873.50;5055896;28;20361;-87
2022/12/21 06:09:24;;;;;;;54.03;15.73;;;;;;;6.46;100.00;100875.91;5055570;28;20020;-87
2022/12/21 06:11:49;;;;;;;57.03;14.98;;;;;;;6.42;100.00;100875.47;5055299;28;20039;-87
2022/12/21 06:14:18;;;;;;;54.20;14.85;;;;;;;6.39;100.00;100875.84;5055316;28;20032;-88
2022/12/21 06:16:46;;;;;;;56.87;13.77;;;;;;;6.39;100.00;100874.97;5073104;28;20055;-87
2022/12/21 06:19:12;;;;;;;48.35;14.15;;;;;;;6.38;100.00;100876.00;5039267;28;20036;-87
2022/12/21 06:21:37;;;;;;;44.92;13.50;;;;;;;6.37;100.00;100879.72;5055028;28;20400;-87
2022/12/21 06:24:03;;;;;;;48.85;12.40;;;;;;;6.32;100.00;100877.59;5038843;28;20464;-86
2022/12/21 06:26:34;;;;;;;47.63;12.60;;;;;;;6.32;100.00;100883.00;5073197;28;20495;-87
2022/12/21 06:29:03;;;;;;;50.35;12.70;;;;;;;6.28;100.00;100870.91;5038872;28;20039;-85
2022/12/21 06:31:29;;;;;;;41.75;11.20;;;;;;;6.24;100.00;100878.50;5055072;28;20033;-84
2022/12/21 06:34:04;;;;;;;43.17;11.73;;;;;;;6.22;100.00;100883.25;5073210;28;20025;-87
2022/12/21 06:36:31;;;;;;;34.92;11.07;;;;;;;6.21;100.00;100869.97;5040421;28;20031;-84
2022/12/21 06:39:02;;;;;;;41.08;10.20;;;;;;;6.21;100.00;100872.66;5055603;28;20033;-88
2022/12/21 06:41:29;;;;;;;38.75;10.50;;;;;;;6.20;100.00;100869.16;5073331;28;20534;-88
2022/12/21 06:43:58;;;;;;;39.07;9.33;;;;;;;6.20;100.00;100879.06;5055365;28;20039;-86
2022/12/21 06:46:26;;;;;;;31.70;10.25;;;;;;;6.19;100.00;100878.25;5055114;28;20500;-85
2022/12/21 06:48:54;;;;;;;35.17;9.95;;;;;;;6.20;100.00;100881.75;5055240;28;20028;-86
2022/12/21 06:51:26;;;;;;;35.40;10.10;;;;;;;6.20;100.00;100881.75;5055435;28;20033;-87
2022/12/21 06:53:53;;;;;;;39.80;8.98;;;;;;;6.16;100.00;100892.09;5073722;28;20029;-86
2022/12/21 06:56:21;;;;;;;34.43;9.10;;;;;;;6.17;100.00;100887.53;5055455;28;20056;-85
2022/12/21 06:58:54;;;;;;;40.08;10.32;;;;;;;6.18;100.00;100897.28;5072997;28;20028;-85
2022/12/21 07:01:29;;;;;;;37.38;8.80;;;;;;;6.12;100.00;100905.06;5055331;28;20029;-85
2022/12/21 07:03:55;;;;;;;33.22;8.82;;;;;;;6.11;100.00;100906.13;5054970;28;20094;-84
2022/12/21 07:06:22;;;;;;;31.80;8.73;;;;;;;6.10;100.00;100903.59;5055777;28;20060;-84
2022/12/21 07:08:51;;;;;;;30.47;8.97;;;;;;;6.09;100.00;100905.44;5058417;28;20032;-90
2022/12/21 07:11:19;;;;;;;38.53;9.20;;;;;;;6.08;100.00;100892.16;5058658;28;20032;-85
2022/12/21 07:13:46;;;;;;;32.78;8.63;;;;;;;6.02;100.00;100899.13;5075904;28;20029;-85
2022/12/21 07:16:23;;;;;;;34.95;8.68;;;;;;;6.01;100.00;100902.84;5058206;28;20056;-87
2022/12/21 07:18:49;;;;;;;30.13;7.68;;;;;;;6.00;100.00;100897.66;5057660;28;20044;-86
2022/12/21 07:21:25;;;;;;;27.13;8.17;;;;;;;5.98;100.00;100903.22;5058225;28;20093;-86
2022/12/21 07:24:01;;;;;;;27.10;8.70;;;;;;;5.96;100.00;100906.06;5057897;28;20024;-84
2022/12/21 07:26:29;;;;;;;34.55;9.15;;;;;;;5.94;100.00;100912.66;5043160;28;20135;-85
2022/12/21 07:28:55;;;;;;;31.45;9.10;;;;;;;5.94;100.00;100912.66;5075942;28;20064;-84
2022/12/21 07:31:36;;;;;;;30.10;8.70;;;;;;;5.94;100.00;100915.34;5041097;28;20024;-85
2022/12/21 07:34:02;;;;;;;30.58;9.15;;;;;;;5.90;100.00;100920.25;5059859;28;20055;-85
2022/12/21 07:36:27;;;;;;;36.60;9.27;;;;;;;5.92;100.00;100922.75;5058115;28;20452;-85
2022/12/21 07:38:54;;;;;;;32.47;9.43;;;;;;;5.95;100.00;100933.19;5057796;28;20035;-86
2022/12/21 07:41:20;;;;;;;40.90;10.07;;;;;;;5.95;100.00;100941.28;5075984;28;20111;-85
2022/12/21 07:43:49;;;;;;;38.90;9.55;;;;;;;5.96;100.00;100951.00;5057638;28;20138;-85
2022/12/21 07:46:16;;;;;;;35.78;9.15;;;;;;;5.97;100.00;100955.41;5075671;28;20034;-85
2022/12/21 07:48:43;;;;;;;29.67;9.65;;;;;;;5.95;100.00;100952.03;5057455;28;20024;-85
2022/12/21 07:51:09;;;;;;;39.13;9.75;;;;;;;5.95;100.00;100962.81;5041378;28;20054;-86
2022/12/21 07:53:35;;;;;;;35.78;9.50;;;;;;;5.95;100.00;100960.94;5075163;28;20457;-86
2022/12/21 07:56:13;;;;;;;34.37;9.97;;;;;;;5.96;100.00;100969.84;5057780;28;20035;-87
2022/12/21 07:58:39;;;;;;;37.53;10.40;;;;;;;5.99;100.00;100966.00;5043288;28;20761;-85
2022/12/21 08:01:09;;;;;;;30.83;9.02;;;;;;;6.00;100.00;100967.69;5041749;28;20041;-85
2022/12/21 08:03:36;;;;;;;36.60;9.48;;;;;;;5.99;100.00;100968.69;5058592;28;20055;-85
2022/12/21 08:06:14;;;;;;;;;;;;;;;;;;;;;
2022/12/21 08:08:41;;;;;;;35.38;10.52;;;;;;;5.98;100.00;100965.16;5076463;28;20029;-85
2022/12/21 08:11:14;;;;;;;36.22;9.85;;;;;;;5.97;100.00;100955.41;5057592;28;20033;-85
2022/12/21 08:13:41;;;;;;;40.90;10.05;;;;;;;5.96;100.00;100938.38;5057857;28;20452;-85
2022/12/21 08:16:18;;;;;;;41.20;10.43;;;;;;;5.99;100.00;100950.66;5075532;28;20020;-85
2022/12/21 08:18:46;;;;;;;43.78;10.38;;;;;;;6.01;100.00;100954.03;5056806;28;20048;-85
2022/12/21 08:21:12;;;;;;;35.33;10.48;;;;;;;6.05;100.00;100960.69;5057314;28;20032;-85
2022/12/21 08:23:39;;;;;;;48.10;11.68;;;;;;;6.10;100.00;100957.47;5075077;28;20078;-86
2022/12/21 08:26:09;;;;;;;49.58;12.02;;;;;;;6.10;100.00;100969.09;5057099;28;20060;-86
2022/12/21 08:28:34;;;;;;;42.85;12.00;;;;;;;6.14;100.00;100961.47;5057079;28;20115;-86
2022/12/21 08:31:13;;;;;;;55.95;12.15;;;;;;;6.17;100.00;100963.81;5056970;28;20060;-85
2022/12/21 08:33:42;;;;;;;47.50;12.25;;;;;;;6.20;100.00;100963.44;5057099;28;20140;-86
2022/12/21 08:36:12;;;;;;;43.90;12.63;;;;;;;6.25;100.00;100962.91;5075812;28;20131;-85
2022/12/21 08:38:38;;;;;;;51.90;12.90;;;;;;;6.28;100.00;100960.66;5057120;28;20396;-85
2022/12/21 08:41:07;;;;;;;51.53;13.68;;;;;;;6.29;100.00;100958.81;5057208;28;20046;-86
2022/12/21 08:43:36;;;;;;;52.97;14.73;;;;;;;6.32;100.00;100953.88;5040368;28;20040;-85
2022/12/21 08:46:03;;;;;;;58.75;14.25;;;;;;;6.35;100.00;100962.59;5074964;28;20032;-85
2022/12/21 08:48:29;;;;;;;48.08;14.05;;;;;;;6.40;100.00;100971.00;5057662;28;20036;-84
2022/12/21 08:50:58;;;;;;;53.72;15.85;;;;;;;6.38;100.00;100962.22;5057264;28;20036;-85
2022/12/21 08:53:24;;;;;;;66.55;16.27;;;;;;;6.43;100.00;100973.31;5056734;28;20468;-85
2022/12/21 08:55:50;;;;;;;52.10;15.68;;;;;;;6.43;100.00;100962.53;5056960;28;20035;-85
2022/12/21 08:58:16;;;;;;;70.03;17.95;;;;;;;6.46;100.00;100968.38;5056763;28;20025;-84
2022/12/21 09:00:45;;;;;;;64.97;18.13;;;;;;;6.49;100.00;100975.25;5074566;28;20032;-85
2022/12/21 09:03:13;;;;;;;70.60;18.83;;;;;;;6.50;100.00;100969.69;5056892;28;20034;-85
2022/12/21 09:05:39;;;;;;;69.82;19.75;;;;;;;6.55;100.00;100971.00;5057172;28;20086;-84
2022/12/21 09:08:07;;;;;;;77.30;20.67;;;;;;;6.57;100.00;100960.84;5057178;28;20524;-85
2022/12/21 09:10:33;;;;;;;71.63;19.90;;;;;;;6.57;100.00;100958.16;5074350;28;20037;-86
2022/12/21 09:13:01;;;;;;;74.10;20.65;;;;;;;6.62;100.00;100951.19;5056334;28;20035;-85
2022/12/21 09:15:26;;;;;;;77.00;20.40;;;;;;;6.65;100.00;100955.38;5056752;28;20115;-87
2022/12/21 09:17:54;;;;;;;70.78;20.25;;;;;;;6.67;100.00;100951.47;5055920;28;20076;-86
2022/12/21 09:20:22;;;;;;;74.55;20.25;;;;;;;6.70;100.00;100944.03;5022620;28;20055;-86
2022/12/21 09:22:56;;;;;;;73.45;20.00;;;;;;;6.75;100.00;100947.84;5056217;28;20127;-86
2022/12/21 09:25:31;;;;;;;71.95;20.27;;;;;;;6.75;100.00;100947.84;5056962;28;20036;-86
2022/12/21 09:28:01;;;;;;;68.50;19.60;;;;;;;6.78;100.00;100952.84;5056387;28;20090;-86
2022/12/21 09:30:27;;;;;;;68.97;19.05;;;;;;;6.87;100.00;100953.59;5055618;28;20025;-86
2022/12/21 09:32:53;;;;;;;69.93;19.58;;;;;;;6.96;100.00;100951.63;5056340;28;20032;-86
2022/12/21 09:35:19;;;;;;;72.32;20.00;;;;;;;7.00;100.00;100966.41;5039241;28;20032;-85
2022/12/21 09:37:45;;;;;;;69.25;20.50;;;;;;;7.05;100.00;100961.25;5039118;28;20062;-85
2022/12/21 09:40:12;;;;;;;68.83;20.27;;;;;;;7.05;100.00;100965.84;5039443;28;20081;-85
2022/12/21 09:43:15;;;;;;;63.97;18.75;;;;;;;7.09;100.00;100975.22;5055650;28;20028;-85
2022/12/21 09:45:59;;;;;;;60.75;18.08;;;;;;;7.11;100.00;100979.38;5056159;28;20086;-85
2022/12/21 09:48:36;;;;;;;59.40;17.77;;;;;;;7.08;100.00;100978.94;5056037;28;20036;-85
2022/12/21 09:51:09;;;;;;;53.72;17.40;;;;;;;7.08;100.00;100984.34;5073565;28;20036;-86
2022/12/21 09:53:52;;;;;;;53.07;16.97;;;;;;;7.13;100.00;100987.28;5055496;28;20082;-86
2022/12/21 09:56:27;;;;;;;59.28;17.15;;;;;;;7.12;100.00;100977.53;5055678;28;20029;-86
2022/12/21 09:59:02;;;;;;;52.75;16.83;;;;;;;7.18;100.00;100977.59;5056117;28;20039;-86
2022/12/21 10:02:00;;;;;;;48.35;15.43;;;;;;;7.18;100.00;100988.41;5074207;28;20020;-86
2022/12/21 10:04:56;;;;;;;46.10;14.30;;;;;;;7.15;100.00;100985.25;5054354;28;20480;-86
2022/12/21 10:07:43;;;;;;;45.53;15.37;;;;;;;7.09;100.00;100986.03;5055620;28;20055;-86
2022/12/21 10:10:42;;;;;;;45.05;13.38;;;;;;;7.12;100.00;100978.38;5056249;28;20089;-86
2022/12/21 10:13:29;;;;;;;44.40;15.00;;;;;;;7.16;100.00;100982.38;5055394;28;20020;-86
2022/12/21 10:16:04;;;;;;;42.38;14.40;;;;;;;7.22;100.00;100985.31;5054631;28;20040;-87
2022/12/21 10:18:38;;;;;;;36.10;13.23;;;;;;;7.17;100.00;100984.03;5055274;28;20053;-86
2022/12/21 10:21:19;;;;;;;37.93;13.17;;;;;;;7.19;100.00;100995.47;5055872;28;20024;-86
2022/12/21 10:23:48;;;;;;;42.70;14.02;;;;;;;7.22;100.00;100988.88;5055435;28;20116;-85
2022/12/21 10:26:25;;;;;;;40.30;13.65;;;;;;;7.18;100.00;100990.28;5056184;28;20064;-86
2022/12/21 10:28:58;;;;;;;32.10;14.00;;;;;;;7.20;100.00;100982.81;5073217;28;20060;-85
2022/12/21 10:31:42;;;;;;;39.15;13.30;;;;;;;7.23;100.00;100978.91;5055672;28;20025;-85
2022/12/21 10:34:24;;;;;;;39.33;12.77;;;;;;;7.28;100.00;100987.25;5055372;28;20025;-85
2022/12/21 10:36:58;;;;;;;41.03;13.13;;;;;;;7.32;100.00;100977.75;5055045;28;20060;-86
2022/12/21 10:39:24;;;;;;;29.40;11.57;;;;;;;7.33;100.00;100974.88;5056128;28;20028;-86
2022/12/21 10:42:10;;;;;;;39.65;12.73;;;;;;;7.35;100.00;100972.81;5056627;28;20036;-85
2022/12/21 10:44:42;;;;;;;41.30;13.38;;;;;;;7.42;100.00;100961.25;5059120;28;20456;-85
2022/12/21 10:47:23;;;;;;;35.47;12.80;;;;;;;7.45;100.00;100950.91;5059953;28;20028;-86
2022/12/21 10:49:51;;;;;;;32.17;12.68;;;;;;;7.48;100.00;100952.38;5077282;28;20048;-86
2022/12/21 10:52:39;;;;;;;37.60;13.00;;;;;;;7.50;100.00;100947.63;5058775;28;20559;-85
2022/12/21 10:55:16;;;;;;;28.95;12.23;;;;;;;7.53;100.00;100950.78;5059315;28;20035;-85
2022/12/21 10:57:43;;;;;;;36.60;13.63;;;;;;;7.53;100.00;100956.19;5059836;28;20040;-86
2022/12/21 11:00:47;;;;;;;32.70;12.10;;;;;;;7.51;100.00;100954.69;5059199;28;20032;-85
2022/12/21 11:03:19;;;;;;;33.10;12.80;;;;;;;7.54;100.00;100947.06;5059065;28;20039;-85
2022/12/21 11:05:44;;;;;;;33.63;13.18;;;;;;;7.57;100.00;100936.91;5058366;28;20037;-85
2022/12/21 11:08:12;;;;;;;29.87;12.63;;;;;;;7.55;100.00;100943.31;5058926;28;20043;-85
2022/12/21 11:10:49;;;;;;;34.33;12.90;;;;;;;7.60;100.00;100934.63;5076897;28;20028;-86
2022/12/21 11:13:16;;;;;;;29.02;12.45;;;;;;;7.62;100.00;100940.69;5058878;28;20029;-85
2022/12/21 11:16:10;;;;;;;31.88;12.60;;;;;;;7.63;100.00;100936.97;5042223;28;20043;-85
2022/12/21 11:18:42;;;;;;;27.43;12.50;;;;;;;7.68;100.00;100937.22;5058330;28;20048;-86
2022/12/21 11:21:14;;;;;;;35.17;13.25;;;;;;;7.71;100.00;100939.53;5058384;28;20036;-86
2022/12/21 11:23:39;;;;;;;34.08;13.20;;;;;;;7.70;100.00;100940.53;5058438;28;20032;-85
2022/12/21 11:26:15;;;;;;;32.73;12.17;;;;;;;7.70;100.00;100937.84;5076165;28;20537;-86
2022/12/21 11:28:40;;;;;;;25.33;11.88;;;;;;;7.65;100.00;100942.19;5058885;28;20024;-86
2022/12/21 11:31:06;;;;;;;29.77;12.63;;;;;;;7.65;100.00;100936.78;5058668;28;20124;-86
2022/12/21 11:33:35;;;;;;;30.53;12.30;;;;;;;7.72;100.00;100943.91;5025134;28;20563;-87
2022/12/21 11:36:23;;;;;;;31.85;12.85;;;;;;;7.69;100.00;100935.34;5076245;28;20320;-86
2022/12/21 11:38:48;;;;;;;33.08;12.30;;;;;;;7.70;100.00;100937.03;5057829;28;20029;-85
2022/12/21 11:41:17;;;;;;;31.47;12.23;;;;;;;7.68;100.00;100936.38;5058396;28;20046;-85